Time;durP1;ratioP1;P1;durP2;ratioP2;P2;SDS_P1;SDS_P2;PMS_P1;PMS_P2;Temp;Humidity;BMP_temperature;BMP_pressure;BME280_temperature;BME280_humidity;BME280_pressure;Samples;Min_cycle;Max_cycle;Signal;HPM_P1;HPM_P2
2023/04/13 00:03:31;;;;;;;29.00;16.10;;;;;;;8.54;88.07;99207.27;217641;1289;139145;-87
2023/04/13 00:08:34;;;;;;;33.80;19.00;;;;;;;8.51;88.23;99204.45;218012;1291;139007;-87
2023/04/13 00:13:41;;;;;;;33.80;19.40;;;;;;;8.47;88.38;99199.05;217434;1292;138505;-87
2023/04/13 00:18:42;;;;;;;31.90;20.60;;;;;;;8.41;88.47;99198.89;217940;1292;138567;-88
2023/04/13 00:23:43;;;;;;;42.10;23.40;;;;;;;8.36;88.83;99185.66;217523;1291;139070;-89
2023/04/13 00:28:43;;;;;;;45.70;28.70;;;;;;;8.32;88.87;99183.23;218219;1291;96824;-87
2023/04/13 00:33:44;;;;;;;31.50;20.60;;;;;;;8.27;88.98;99183.71;217502;1291;138769;-88
2023/04/13 00:38:45;;;;;;;34.10;21.00;;;;;;;8.23;89.25;99189.80;218040;1291;138771;-88
2023/04/13 00:43:46;;;;;;;39.50;20.30;;;;;;;8.19;89.10;99194.09;217392;1291;138613;-87
2023/04/13 00:48:47;;;;;;;36.10;20.40;;;;;;;8.13;89.32;99199.32;218124;1291;138566;-88
2023/04/13 00:53:48;;;;;;;32.90;18.10;;;;;;;8.08;89.37;99202.36;217383;1290;139177;-88
2023/04/13 00:58:49;;;;;;;30.90;17.60;;;;;;;8.02;89.60;99205.64;217918;1290;139095;-88
2023/04/13 01:03:52;;;;;;;32.70;19.20;;;;;;;7.97;89.79;99211.89;217997;1290;139233;-88
2023/04/13 01:09:20;;;;;;;30.70;18.10;;;;;;;7.91;89.95;99208.36;217581;1291;139405;-88
2023/04/13 01:14:32;;;;;;;33.90;17.90;;;;;;;7.85;90.26;99235.12;218028;1291;139106;-88
2023/04/13 01:19:50;;;;;;;32.00;18.30;;;;;;;7.82;90.39;99245.20;217535;1291;138775;-88
2023/04/13 01:24:59;;;;;;;30.40;18.30;;;;;;;7.81;90.69;99255.68;218074;1291;138760;-87
2023/04/13 01:30:00;;;;;;;31.40;18.90;;;;;;;7.82;90.62;99252.00;217633;1290;139102;-87
2023/04/13 01:35:01;;;;;;;30.50;18.70;;;;;;;7.83;90.63;99248.16;218190;1290;108625;-87
2023/04/13 01:40:07;;;;;;;28.50;17.20;;;;;;;7.84;90.86;99230.88;217585;1290;139431;-87
2023/04/13 01:45:12;;;;;;;33.90;19.40;;;;;;;7.85;90.73;99229.08;218030;1291;138427;-86
2023/04/13 01:50:24;;;;;;;31.00;19.10;;;;;;;7.87;90.78;99224.88;217518;1291;138692;-86
2023/04/13 01:55:25;;;;;;;35.00;18.70;;;;;;;7.89;90.39;99221.82;217948;1290;139538;-88
2023/04/13 02:00:32;;;;;;;29.30;18.00;;;;;;;7.90;90.34;99212.44;217554;1291;138962;-86
2023/04/13 02:05:35;;;;;;;37.50;19.50;;;;;;;7.92;90.58;99212.05;218201;1291;111298;-87
2023/04/13 02:10:36;;;;;;;30.70;18.40;;;;;;;7.92;90.40;99210.87;217606;1290;138671;-87
2023/04/13 02:15:37;;;;;;;33.10;18.20;;;;;;;7.94;90.48;99220.81;218006;1290;138593;-86
2023/04/13 02:20:42;;;;;;;28.70;17.50;;;;;;;7.95;90.32;99227.55;217371;1290;139007;-87
2023/04/13 02:25:43;;;;;;;31.70;18.70;;;;;;;7.94;90.31;99230.42;217797;1291;139037;-86
2023/04/13 02:30:43;;;;;;;32.70;18.90;;;;;;;7.94;90.60;99237.40;217360;1291;139610;-85
2023/04/13 02:35:44;;;;;;;31.20;17.70;;;;;;;7.92;90.95;99237.09;217996;1290;138468;-86
2023/04/13 02:40:44;;;;;;;31.00;18.40;;;;;;;7.91;91.03;99239.73;217596;1291;138787;-87
2023/04/13 02:45:45;;;;;;;29.40;17.30;;;;;;;7.89;91.08;99244.27;218141;1290;138459;-86
2023/04/13 02:50:46;;;;;;;30.00;18.70;;;;;;;7.89;91.15;99250.70;217649;1290;139489;-86
2023/04/13 02:55:49;;;;;;;28.60;17.80;;;;;;;7.90;91.06;99253.91;218069;1290;138563;-87
2023/04/13 03:00:49;;;;;;;30.30;17.70;;;;;;;7.91;90.86;99253.05;217533;1290;138856;-86
2023/04/13 03:05:51;;;;;;;29.70;18.00;;;;;;;7.90;90.99;99247.73;218147;1291;138353;-87
2023/04/13 03:10:53;;;;;;;30.60;17.90;;;;;;;7.87;90.83;99249.37;217549;1291;138902;-86
2023/04/13 03:15:53;;;;;;;26.70;16.10;;;;;;;7.87;91.02;99248.27;218023;1292;138380;-85
2023/04/13 03:20:53;;;;;;;27.10;16.70;;;;;;;7.86;90.83;99249.13;217390;1290;138738;-87
2023/04/13 03:25:54;;;;;;;32.30;17.70;;;;;;;7.87;90.84;99255.01;217981;1292;139043;-86
2023/04/13 03:30:55;;;;;;;26.90;15.80;;;;;;;7.87;90.80;99256.86;217518;1291;139316;-87
2023/04/13 03:35:56;;;;;;;30.10;17.90;;;;;;;7.86;90.59;99256.80;217943;1292;139713;-87
2023/04/13 03:40:56;;;;;;;29.40;17.90;;;;;;;7.83;90.60;99254.20;217636;1291;139683;-86
2023/04/13 03:45:57;;;;;;;31.80;17.30;;;;;;;7.81;90.66;99251.14;218047;1292;138446;-86
2023/04/13 03:50:57;;;;;;;28.30;16.10;;;;;;;7.85;90.58;99255.08;217432;1293;139208;-87
2023/04/13 03:55:58;;;;;;;32.40;17.10;;;;;;;7.86;90.55;99256.09;217984;1294;138684;-87
2023/04/13 04:00:58;;;;;;;27.70;17.00;;;;;;;7.86;90.51;99252.02;217486;1294;139059;-86
2023/04/13 04:05:59;;;;;;;25.50;15.80;;;;;;;7.87;90.67;99256.56;217959;1292;142033;-86
2023/04/13 04:10:59;;;;;;;28.50;15.80;;;;;;;7.88;90.56;99255.16;217636;1291;138660;-85
2023/04/13 04:16:00;;;;;;;30.10;15.70;;;;;;;7.87;90.39;99258.44;217612;1291;342177;-87
2023/04/13 04:21:01;;;;;;;29.50;16.80;;;;;;;7.85;90.36;99266.02;217430;1291;139248;-86
2023/04/13 04:26:03;;;;;;;28.50;16.90;;;;;;;7.88;90.51;99269.64;217945;1293;139309;-86
2023/04/13 04:31:05;;;;;;;29.20;17.50;;;;;;;7.90;90.47;99269.25;217439;1293;138726;-85
2023/04/13 04:36:08;;;;;;;30.90;18.30;;;;;;;7.89;90.61;99273.94;217982;1291;139543;-86
2023/04/13 04:41:12;;;;;;;31.50;16.80;;;;;;;7.90;90.51;99275.75;217481;1291;140333;-86
2023/04/13 04:46:14;;;;;;;30.20;18.00;;;;;;;7.93;90.32;99272.79;217980;1291;138506;-87
2023/04/13 04:51:14;;;;;;;34.00;17.50;;;;;;;7.95;90.55;99273.25;217477;1291;138931;-87
2023/04/13 04:56:15;;;;;;;24.30;14.40;;;;;;;7.98;90.38;99284.92;217997;1291;138840;-87
2023/04/13 05:01:16;;;;;;;27.60;16.10;;;;;;;8.02;90.02;99277.10;217105;1291;138707;-87
2023/04/13 05:06:17;;;;;;;28.40;16.70;;;;;;;8.06;90.16;99280.09;218003;1291;139012;-87
2023/04/13 05:11:17;;;;;;;33.30;16.80;;;;;;;8.13;89.77;99291.79;217590;1290;139644;-87
2023/04/13 05:16:18;;;;;;;31.50;17.90;;;;;;;8.18;89.52;99276.91;218176;1290;138345;-87
2023/04/13 05:21:18;;;;;;;32.70;16.80;;;;;;;8.23;89.62;99276.79;217455;1291;139116;-88
2023/04/13 05:26:19;;;;;;;27.30;16.00;;;;;;;8.32;89.77;99287.46;217995;1291;138562;-87
2023/04/13 05:31:20;;;;;;;29.80;17.70;;;;;;;8.40;89.49;99296.72;217388;1291;139357;-88
2023/04/13 05:36:21;;;;;;;30.40;17.30;;;;;;;8.49;89.51;99302.77;218009;1290;138704;-86
2023/04/13 05:41:21;;;;;;;30.30;18.00;;;;;;;8.56;89.30;99304.42;217541;1295;138978;-86
2023/04/13 05:46:22;;;;;;;32.50;18.00;;;;;;;8.65;89.05;99307.79;217958;1290;139330;-86
2023/04/13 05:51:22;;;;;;;33.60;18.00;;;;;;;8.72;89.05;99312.59;217378;1291;139043;-87
2023/04/13 05:56:24;;;;;;;29.80;17.30;;;;;;;8.77;88.57;99318.15;217932;1291;139817;-87
2023/04/13 06:01:28;;;;;;;33.10;16.30;;;;;;;8.82;88.36;99327.16;217352;1290;139868;-87
2023/04/13 06:06:29;;;;;;;30.30;17.00;;;;;;;8.89;88.15;99327.09;217842;1290;138676;-87
2023/04/13 06:11:29;;;;;;;27.20;16.30;;;;;;;8.95;87.74;99320.42;217601;1290;139643;-88
2023/04/13 06:16:29;;;;;;;26.80;16.80;;;;;;;9.04;87.82;99318.84;218043;1290;138287;-87
2023/04/13 06:21:30;;;;;;;27.20;16.90;;;;;;;9.14;87.60;99322.13;217543;1291;138813;-88
2023/04/13 06:26:32;;;;;;;27.10;15.60;;;;;;;9.24;87.47;99323.06;218087;1290;138693;-88
2023/04/13 06:31:32;;;;;;;29.60;16.00;;;;;;;9.35;87.09;99327.21;217590;1291;139506;-87
2023/04/13 06:36:32;;;;;;;26.20;15.90;;;;;;;9.48;86.69;99334.08;218121;1290;138525;-87
2023/04/13 06:41:33;;;;;;;29.40;15.70;;;;;;;9.60;86.11;99345.13;217663;1291;139882;-86
2023/04/13 06:46:34;;;;;;;28.80;15.30;;;;;;;9.69;85.34;99347.69;218246;1291;96069;-87
2023/04/13 06:51:34;;;;;;;25.80;14.80;;;;;;;9.80;85.01;99347.96;217643;1291;138992;-87
2023/04/13 06:56:35;;;;;;;25.40;14.50;;;;;;;9.90;84.68;99355.71;218100;1291;138776;-86
2023/04/13 07:01:35;;;;;;;26.60;14.80;;;;;;;9.99;83.99;99356.70;217622;1290;139127;-87
2023/04/13 07:06:36;;;;;;;25.30;14.90;;;;;;;10.04;83.73;99368.79;218363;1291;139018;-87
2023/04/13 07:11:36;;;;;;;25.10;14.60;;;;;;;10.11;83.65;99373.71;217501;1291;139960;-87
2023/04/13 07:16:37;;;;;;;25.30;15.40;;;;;;;10.19;83.52;99380.44;218210;1291;96041;-88
2023/04/13 07:21:38;;;;;;;22.90;14.00;;;;;;;10.30;83.01;99374.82;217498;1290;139248;-88
2023/04/13 07:26:39;;;;;;;25.90;14.40;;;;;;;10.40;83.06;99367.69;218138;1290;138950;-87
2023/04/13 07:31:40;;;;;;;26.80;14.50;;;;;;;10.51;82.48;99381.77;217542;1291;139710;-90
2023/04/13 07:36:41;;;;;;;25.40;13.80;;;;;;;10.63;82.50;99382.41;218100;1291;139097;-92
2023/04/13 07:41:45;;;;;;;26.20;14.30;;;;;;;10.79;82.39;99387.65;217482;1291;139349;-89
2023/04/13 07:46:45;;;;;;;21.20;13.50;;;;;;;10.96;81.97;99399.58;218139;1291;112715;-89
2023/04/13 07:51:46;;;;;;;27.60;14.30;;;;;;;11.10;81.62;99408.05;217524;1291;139872;-89
2023/04/13 07:56:46;;;;;;;25.60;13.70;;;;;;;11.26;81.61;99407.92;218155;1291;139228;-89
2023/04/13 08:01:47;;;;;;;26.10;12.90;;;;;;;11.43;80.96;99420.85;217568;1291;139206;-90
2023/04/13 08:06:47;;;;;;;21.90;12.30;;;;;;;11.62;81.14;99435.50;218008;1291;139206;-88
2023/04/13 08:11:48;;;;;;;23.20;11.90;;;;;;;11.82;80.44;99435.86;217580;1290;139737;-88
2023/04/13 08:16:49;;;;;;;26.60;11.80;;;;;;;12.04;80.14;99436.42;218119;1291;96561;-88
2023/04/13 08:21:51;;;;;;;19.40;11.00;;;;;;;12.27;80.85;99442.31;217530;1291;139067;-90
2023/04/13 08:26:53;;;;;;;20.30;10.50;;;;;;;12.54;80.23;99440.73;217877;1294;139188;-87
2023/04/13 08:31:55;;;;;;;17.20;10.10;;;;;;;12.80;80.57;99445.20;217388;1290;139479;-92
2023/04/13 08:36:56;;;;;;;17.20;9.70;;;;;;;13.12;80.85;99447.68;218072;1291;139934;-90
2023/04/13 08:41:57;;;;;;;17.20;10.20;;;;;;;13.46;78.99;99450.31;217521;1291;142098;-90
2023/04/13 08:46:58;;;;;;;20.50;11.50;;;;;;;13.62;79.59;99448.55;218253;1290;95938;-89
2023/04/13 08:52:05;;;;;;;15.50;9.60;;;;;;;14.03;80.24;99444.81;217567;1291;139434;-89
2023/04/13 08:57:09;;;;;;;15.00;9.10;;;;;;;14.64;83.00;99448.05;218046;1292;139155;-88
2023/04/13 09:02:10;;;;;;;14.80;9.00;;;;;;;15.36;82.48;99444.38;217457;1291;139344;-90
2023/04/13 09:07:15;;;;;;;15.10;9.50;;;;;;;16.09;78.92;99447.20;217935;1295;139380;-88
2023/04/13 09:12:15;;;;;;;14.20;9.00;;;;;;;16.54;76.23;99442.95;217389;1291;141356;-88
2023/04/13 09:17:31;;;;;;;16.60;9.80;;;;;;;17.09;75.14;99444.23;218020;1295;96328;-88
2023/04/13 09:22:32;;;;;;;13.10;7.80;;;;;;;17.67;73.26;99438.66;217434;1291;138680;-89
2023/04/13 09:27:39;;;;;;;13.40;8.50;;;;;;;18.18;74.09;99434.66;218702;1291;95708;-93
2023/04/13 09:32:39;;;;;;;15.10;8.60;;;;;;;19.00;75.09;99429.84;217402;1290;139286;-88
2023/04/13 09:37:43;;;;;;;14.80;7.80;;;;;;;19.92;72.11;99430.42;218084;1288;139295;-87
2023/04/13 09:42:57;;;;;;;12.80;8.20;;;;;;;20.64;70.86;99431.70;217732;1288;138534;-87
2023/04/13 09:48:01;;;;;;;13.60;7.90;;;;;;;21.46;68.83;99432.77;218186;1291;138270;-88
2023/04/13 09:53:03;;;;;;;11.20;6.80;;;;;;;22.08;66.55;99430.49;217636;1290;139092;-87
2023/04/13 09:58:07;;;;;;;11.50;7.20;;;;;;;22.49;62.78;99436.64;218125;1290;138051;-89
2023/04/13 10:03:12;;;;;;;11.00;7.50;;;;;;;22.53;63.68;99437.63;217526;1289;139267;-88
2023/04/13 10:08:13;;;;;;;10.80;7.10;;;;;;;22.78;62.22;99434.11;218079;1290;138591;-88
2023/04/13 10:13:22;;;;;;;10.30;6.60;;;;;;;23.02;62.18;99432.60;217619;1289;141716;-87
2023/04/13 10:18:58;;;;;;;10.40;5.90;;;;;;;22.98;59.30;99431.41;218095;1291;138011;-87
2023/04/13 10:23:59;;;;;;;;;;;;;;;22.62;56.30;99439.74;217603;1290;138753;-87
2023/04/13 10:29:00;;;;;;;10.40;6.20;;;;;;;22.18;58.21;99438.70;217705;1291;124838;-87
2023/04/13 10:34:01;;;;;;;11.00;7.00;;;;;;;22.12;58.85;99442.05;217946;1291;138096;-87
2023/04/13 10:39:01;;;;;;;11.10;6.10;;;;;;;21.95;58.82;99454.41;217396;1291;138886;-87
2023/04/13 10:44:04;;;;;;;10.70;5.80;;;;;;;21.74;56.87;99458.27;217908;1291;138136;-86
2023/04/13 10:49:05;;;;;;;9.40;5.80;;;;;;;21.26;57.45;99453.97;217341;1290;138442;-87
2023/04/13 10:54:07;;;;;;;11.20;6.40;;;;;;;21.01;57.02;99457.38;217956;1290;137891;-86
2023/04/13 10:59:08;;;;;;;11.60;5.90;;;;;;;20.71;57.75;99461.54;217500;1291;139089;-86
2023/04/13 11:04:09;;;;;;;11.00;7.10;;;;;;;20.44;58.14;99455.58;217940;1291;138067;-86
2023/04/13 11:09:10;;;;;;;10.00;6.30;;;;;;;20.40;58.07;99462.66;217317;1291;138012;-87
2023/04/13 11:14:20;;;;;;;9.30;4.40;;;;;;;20.40;58.85;99469.83;217880;1291;137963;-86
2023/04/13 11:19:20;;;;;;;9.20;4.30;;;;;;;20.32;58.06;99477.48;217275;1295;138353;-86
2023/04/13 11:24:32;;;;;;;10.20;5.10;;;;;;;20.32;57.72;99479.43;217974;1291;137960;-88
2023/04/13 11:29:33;;;;;;;7.10;3.90;;;;;;;20.20;57.32;99472.46;217586;1291;139259;-88
2023/04/13 11:34:33;;;;;;;7.50;3.60;;;;;;;20.22;57.18;99466.39;217927;1291;138114;-86
2023/04/13 11:39:35;;;;;;;7.60;3.10;;;;;;;20.10;57.09;99472.91;217464;1291;139370;-87
2023/04/13 11:44:36;;;;;;;6.90;3.60;;;;;;;20.01;58.16;99477.22;217899;1291;139210;-86
2023/04/13 11:49:39;;;;;;;7.40;3.60;;;;;;;19.91;57.63;99476.21;217354;1291;138955;-86
2023/04/13 11:54:41;;;;;;;9.80;3.20;;;;;;;19.59;56.89;99481.55;217790;1294;138591;-86
2023/04/13 11:59:44;;;;;;;7.20;2.50;;;;;;;19.31;56.98;99488.97;217330;1293;140046;-86
2023/04/13 12:04:47;;;;;;;6.30;2.60;;;;;;;18.97;57.24;99493.16;217977;1291;96251;-84
2023/04/13 12:09:52;;;;;;;7.50;3.50;;;;;;;18.64;57.42;99501.15;217173;1291;139932;-85
2023/04/13 12:14:54;;;;;;;7.00;2.80;;;;;;;18.35;57.37;99505.86;217829;1291;138124;-85
2023/04/13 12:19:55;;;;;;;7.00;2.70;;;;;;;18.08;57.09;99517.17;217285;1292;138129;-82
2023/04/13 12:24:55;;;;;;;7.20;2.80;;;;;;;17.72;57.03;99520.78;217713;1291;138132;-88
2023/04/13 12:30:01;;;;;;;6.90;2.50;;;;;;;17.34;57.89;99521.09;217341;1292;138856;-84
2023/04/13 12:35:01;;;;;;;5.20;2.40;;;;;;;17.00;58.34;99530.77;217911;1294;107887;-85
2023/04/13 12:40:04;;;;;;;6.60;2.40;;;;;;;16.75;58.01;99531.98;217367;1291;139382;-79
2023/04/13 12:45:06;;;;;;;6.70;2.50;;;;;;;16.49;58.64;99531.88;217902;1292;138342;-87
2023/04/13 12:50:08;;;;;;;4.10;1.90;;;;;;;16.15;58.77;99537.52;217325;1291;138426;-86
2023/04/13 12:55:09;;;;;;;6.20;2.10;;;;;;;15.87;58.74;99545.86;217770;1294;137876;-85
2023/04/13 13:00:10;;;;;;;3.90;1.90;;;;;;;15.68;59.08;99552.27;217360;1291;138601;-85
2023/04/13 13:05:11;;;;;;;4.00;1.70;;;;;;;15.57;59.86;99547.36;217990;1291;95955;-85
2023/04/13 13:10:12;;;;;;;6.00;1.80;;;;;;;15.53;60.38;99543.80;217383;1291;138103;-85
2023/04/13 13:15:13;;;;;;;4.20;1.70;;;;;;;15.52;59.88;99548.05;217919;1291;138313;-85
2023/04/13 13:20:14;;;;;;;5.20;2.10;;;;;;;15.44;60.79;99539.82;217422;1291;139339;-85
2023/04/13 13:25:15;;;;;;;6.50;2.30;;;;;;;15.41;60.70;99543.61;217914;1291;138768;-85
2023/04/13 13:30:15;;;;;;;5.90;2.50;;;;;;;15.32;60.88;99548.38;217423;1291;138632;-85
2023/04/13 13:35:16;;;;;;;5.90;1.70;;;;;;;15.28;61.76;99550.37;218118;1291;96004;-85
2023/04/13 13:40:16;;;;;;;4.70;2.00;;;;;;;15.29;62.38;99555.58;217370;1291;139285;-85
2023/04/13 13:45:16;;;;;;;5.00;1.80;;;;;;;15.23;62.09;99556.11;217863;1291;137878;-84
2023/04/13 13:50:19;;;;;;;6.00;1.60;;;;;;;15.14;62.07;99554.08;217347;1291;138376;-85
2023/04/13 13:55:21;;;;;;;3.70;1.60;;;;;;;15.09;62.44;99559.89;217859;1291;137844;-85
2023/04/13 14:00:22;;;;;;;5.00;1.80;;;;;;;15.00;62.04;99566.98;217354;1291;138612;-83
2023/04/13 14:05:22;;;;;;;6.40;2.60;;;;;;;14.93;62.76;99570.84;217975;1292;96797;-84
2023/04/13 14:10:23;;;;;;;5.10;1.80;;;;;;;14.92;63.76;99575.36;217344;1290;137991;-85
2023/04/13 14:15:23;;;;;;;4.60;2.00;;;;;;;14.89;63.80;99579.70;217849;1291;138730;-86
2023/04/13 14:20:24;;;;;;;5.80;2.10;;;;;;;14.74;64.98;99588.06;217401;1291;138452;-85
2023/04/13 14:25:25;;;;;;;3.70;2.10;;;;;;;14.70;66.23;99586.96;217935;1291;138049;-85
2023/04/13 14:30:25;;;;;;;5.90;1.90;;;;;;;14.62;65.75;99593.04;217465;1291;140207;-86
2023/04/13 14:35:26;;;;;;;4.50;1.90;;;;;;;14.50;66.29;99596.11;218088;1291;95837;-83
2023/04/13 14:40:27;;;;;;;3.60;1.30;;;;;;;14.52;66.40;99601.85;217355;1291;138230;-84
2023/04/13 14:45:27;;;;;;;2.20;1.10;;;;;;;14.48;65.19;99607.70;217902;1291;138256;-85
2023/04/13 14:50:28;;;;;;;2.70;1.20;;;;;;;14.47;65.41;99612.54;217293;1290;138248;-85
2023/04/13 14:55:28;;;;;;;3.50;1.10;;;;;;;14.49;65.25;99617.01;217831;1291;138115;-85
2023/04/13 15:00:37;;;;;;;4.70;1.60;;;;;;;14.51;65.12;99627.18;217345;1290;138253;-85
2023/04/13 15:05:44;;;;;;;4.60;1.50;;;;;;;14.46;64.45;99628.38;217988;1290;104621;-84
2023/04/13 15:10:45;;;;;;;2.00;0.80;;;;;;;14.34;63.33;99626.52;217454;1290;138357;-84
2023/04/13 15:15:47;;;;;;;2.80;1.00;;;;;;;14.21;63.46;99629.66;217938;1291;138648;-84
2023/04/13 15:20:47;;;;;;;2.60;0.70;;;;;;;14.14;64.00;99629.92;217344;1292;138090;-85
2023/04/13 15:25:48;;;;;;;11.10;4.20;;;;;;;14.06;63.72;99632.97;218069;1291;138011;-85
2023/04/13 15:30:50;;;;;;;6.10;1.50;;;;;;;13.97;63.93;99630.65;217616;1290;138830;-85
2023/04/13 15:35:51;;;;;;;3.80;1.30;;;;;;;13.90;63.81;99629.81;218046;1292;138453;-84
2023/04/13 15:40:52;;;;;;;4.40;1.70;;;;;;;13.75;63.84;99635.88;217585;1291;138230;-86
2023/04/13 15:45:52;;;;;;;1.90;0.80;;;;;;;13.62;64.15;99638.66;218008;1291;137982;-85
2023/04/13 15:50:57;;;;;;;2.60;1.20;;;;;;;13.50;64.42;99639.63;217531;1291;139205;-85
2023/04/13 15:55:57;;;;;;;4.40;1.40;;;;;;;13.46;65.27;99644.50;217949;1291;138068;-85
2023/04/13 16:01:02;;;;;;;2.40;1.20;;;;;;;13.32;65.02;99642.39;217491;1291;140032;-85
2023/04/13 16:06:03;;;;;;;1.70;0.70;;;;;;;13.20;65.33;99644.36;217927;1291;138579;-86
2023/04/13 16:11:03;;;;;;;3.70;0.90;;;;;;;13.07;65.06;99646.73;217553;1291;138758;-85
2023/04/13 16:16:04;;;;;;;1.70;0.80;;;;;;;12.97;65.51;99646.12;217808;1291;200541;-85
2023/04/13 16:21:04;;;;;;;1.70;0.70;;;;;;;12.92;66.08;99645.45;217471;1291;138975;-85
2023/04/13 16:26:05;;;;;;;0.90;0.80;;;;;;;12.86;66.97;99653.09;217903;1291;138531;-84
2023/04/13 16:31:08;;;;;;;2.10;1.00;;;;;;;12.85;68.15;99652.54;217525;1290;138463;-85
2023/04/13 16:36:08;;;;;;;3.90;1.60;;;;;;;12.85;69.16;99652.95;217978;1291;138072;-84
2023/04/13 16:41:09;;;;;;;5.30;2.40;;;;;;;12.82;70.25;99662.36;217604;1292;138342;-84
2023/04/13 16:46:12;;;;;;;4.20;1.50;;;;;;;12.76;70.83;99669.75;218027;1291;137858;-85
2023/04/13 16:51:13;;;;;;;4.40;1.60;;;;;;;12.66;72.09;99672.39;217505;1291;138231;-84
2023/04/13 16:56:13;;;;;;;6.00;2.40;;;;;;;12.57;73.05;99682.63;217902;1291;138892;-85
2023/04/13 17:01:14;;;;;;;18.90;9.20;;;;;;;12.47;74.21;99687.14;217438;1291;138647;-85
2023/04/13 17:06:14;;;;;;;12.00;5.30;;;;;;;12.33;75.39;99693.55;217969;1289;139122;-86
2023/04/13 17:11:15;;;;;;;6.70;2.70;;;;;;;12.18;76.01;99698.64;217676;1291;139650;-86
2023/04/13 17:16:16;;;;;;;6.50;2.70;;;;;;;12.09;76.70;99714.14;217964;1291;138291;-86
2023/04/13 17:21:16;;;;;;;14.70;7.50;;;;;;;11.98;77.21;99722.80;217498;1289;139450;-86
2023/04/13 17:26:16;;;;;;;10.50;5.60;;;;;;;11.86;78.25;99727.98;217998;1291;138956;-86
2023/04/13 17:31:17;;;;;;;13.00;6.00;;;;;;;11.76;79.03;99726.16;217460;1290;139295;-86
2023/04/13 17:36:18;;;;;;;10.80;5.50;;;;;;;11.67;79.52;99730.38;218005;1291;138879;-86
2023/04/13 17:41:18;;;;;;;13.40;5.30;;;;;;;11.57;80.00;99732.28;217571;1291;140103;-86
2023/04/13 17:46:19;;;;;;;12.30;6.40;;;;;;;11.49;80.74;99741.36;218017;1291;139138;-86
2023/04/13 17:51:19;;;;;;;10.30;4.10;;;;;;;11.38;81.19;99743.13;217532;1291;138684;-86
2023/04/13 17:56:20;;;;;;;9.20;3.50;;;;;;;11.29;82.13;99748.05;217946;1292;138832;-86
2023/04/13 18:01:24;;;;;;;15.20;6.50;;;;;;;11.20;82.52;99752.77;217514;1290;140463;-85
2023/04/13 18:06:26;;;;;;;35.80;13.80;;;;;;;11.11;82.96;99753.83;218013;1290;138876;-85
2023/04/13 18:11:26;;;;;;;53.60;18.20;;;;;;;11.02;83.65;99761.08;217636;1291;139203;-86
2023/04/13 18:16:26;;;;;;;150.40;42.80;;;;;;;10.91;84.05;99764.77;218118;1291;138882;-87
2023/04/13 18:21:27;;;;;;;144.60;41.50;;;;;;;10.80;84.48;99769.04;217476;1291;139147;-88
2023/04/13 18:26:27;;;;;;;47.20;20.30;;;;;;;10.70;85.06;99766.77;217994;1292;140214;-88
2023/04/13 18:31:28;;;;;;;26.50;16.30;;;;;;;10.62;85.68;99770.39;217335;1292;139708;-87
2023/04/13 18:36:29;;;;;;;24.20;12.50;;;;;;;10.51;86.38;99771.09;217996;1292;140204;-88
2023/04/13 18:41:30;;;;;;;15.70;8.00;;;;;;;10.42;87.14;99775.30;217503;1291;139465;-88
2023/04/13 18:46:30;;;;;;;15.80;8.10;;;;;;;10.36;87.33;99771.77;218070;1294;139637;-88
2023/04/13 18:51:32;;;;;;;19.50;7.10;;;;;;;10.30;88.19;99774.98;217485;1291;139081;-89
2023/04/13 18:56:32;;;;;;;14.70;7.00;;;;;;;10.24;88.45;99772.63;218082;1290;138684;-88
2023/04/13 19:01:33;;;;;;;15.80;9.80;;;;;;;10.19;88.82;99781.80;217365;1292;138872;-88
2023/04/13 19:06:35;;;;;;;15.40;8.70;;;;;;;10.15;88.98;99784.23;217914;1292;138669;-87
2023/04/13 19:11:50;;;;;;;13.00;5.90;;;;;;;10.11;89.80;99785.16;217387;1292;138520;-88
2023/04/13 19:16:51;;;;;;;16.30;6.80;;;;;;;10.05;90.20;99789.93;217913;1291;112004;-88
2023/04/13 19:21:52;;;;;;;12.30;5.00;;;;;;;10.02;90.25;99796.80;217209;1292;138973;-87
2023/04/13 19:26:54;;;;;;;13.60;5.60;;;;;;;10.00;90.40;99797.59;217901;1291;139287;-88
2023/04/13 19:31:55;;;;;;;13.90;5.50;;;;;;;9.94;90.73;99789.48;217337;1294;140360;-89
2023/04/13 19:36:55;;;;;;;12.40;5.40;;;;;;;9.91;90.93;99783.96;217768;1292;139305;-89
2023/04/13 19:41:56;;;;;;;10.90;4.60;;;;;;;9.87;91.14;99785.38;217305;1292;139024;-89
2023/04/13 19:46:56;;;;;;;11.00;4.50;;;;;;;9.84;91.45;99785.83;217995;1291;96678;-89
2023/04/13 19:51:56;;;;;;;10.60;4.60;;;;;;;9.80;92.01;99784.64;217183;1292;138827;-89
2023/04/13 19:56:57;;;;;;;10.70;4.90;;;;;;;9.75;92.21;99789.41;217824;1292;139178;-88
2023/04/13 20:01:57;;;;;;;24.20;15.00;;;;;;;9.71;92.37;99784.84;217296;1295;139394;-88
2023/04/13 20:06:58;;;;;;;16.30;9.50;;;;;;;9.68;92.82;99792.83;217830;1295;139273;-88
2023/04/13 20:11:59;;;;;;;13.90;8.00;;;;;;;9.65;93.18;99799.80;217202;1293;139329;-89
2023/04/13 20:17:00;;;;;;;15.70;6.90;;;;;;;9.63;93.54;99802.06;217927;1291;96170;-88
2023/04/13 20:22:02;;;;;;;9.70;4.10;;;;;;;9.61;94.05;99805.44;217160;1292;138336;-88
2023/04/13 20:27:03;;;;;;;11.40;5.30;;;;;;;9.56;94.56;99808.48;217791;1291;139498;-87
2023/04/13 20:32:04;;;;;;;10.80;4.90;;;;;;;9.53;94.68;99814.34;217499;1291;138908;-88
2023/04/13 20:37:08;;;;;;;9.40;4.60;;;;;;;9.49;95.40;99821.55;217965;1292;138923;-87
2023/04/13 20:42:10;;;;;;;10.70;6.20;;;;;;;9.45;95.52;99827.95;217446;1291;138424;-87
2023/04/13 20:47:14;;;;;;;9.50;4.80;;;;;;;9.43;96.35;99829.27;218161;1291;96000;-87
2023/04/13 20:52:16;;;;;;;12.10;6.10;;;;;;;9.38;96.48;99829.71;217372;1291;139053;-87
2023/04/13 20:57:18;;;;;;;12.50;6.20;;;;;;;9.38;96.59;99826.10;218194;1291;138655;-89
2023/04/13 21:02:19;;;;;;;13.00;6.70;;;;;;;9.36;96.71;99826.88;217572;1291;138468;-88
2023/04/13 21:07:21;;;;;;;13.00;7.60;;;;;;;9.33;96.90;99828.89;217916;1291;139346;-87
2023/04/13 21:12:24;;;;;;;16.30;8.00;;;;;;;9.32;97.02;99828.89;217502;1291;138795;-87
2023/04/13 21:17:25;;;;;;;17.80;9.20;;;;;;;9.32;97.36;99820.41;218071;1291;96336;-88
2023/04/13 21:22:26;;;;;;;18.20;9.10;;;;;;;9.31;97.16;99814.68;217385;1291;139038;-87
2023/04/13 21:27:26;;;;;;;18.60;10.40;;;;;;;9.30;97.53;99812.55;217966;1291;138760;-88
2023/04/13 21:32:27;;;;;;;18.70;11.40;;;;;;;9.28;97.52;99813.73;217598;1291;138583;-87
2023/04/13 21:37:30;;;;;;;19.60;10.50;;;;;;;9.26;98.07;99806.80;218123;1291;138812;-88
2023/04/13 21:42:31;;;;;;;17.60;9.20;;;;;;;9.23;97.87;99800.44;217421;1291;138590;-89
2023/04/13 21:47:31;;;;;;;18.60;9.70;;;;;;;9.21;98.23;99798.54;218195;1291;96150;-92
2023/04/13 21:52:32;;;;;;;17.00;9.20;;;;;;;9.19;98.39;99797.11;217429;1291;138523;-93
2023/04/13 21:57:33;;;;;;;16.50;9.20;;;;;;;9.17;98.34;99797.80;218013;1291;138367;-92
2023/04/13 22:02:33;;;;;;;16.10;9.80;;;;;;;9.15;98.83;99796.61;217488;1291;138981;-93
2023/04/13 22:07:35;;;;;;;20.60;9.20;;;;;;;9.12;99.38;99792.77;218060;1291;138450;-92
2023/04/13 22:12:36;;;;;;;24.60;9.40;;;;;;;9.08;99.31;99788.02;217420;1291;139197;-92
2023/04/13 22:17:36;;;;;;;14.00;7.60;;;;;;;9.04;99.67;99782.74;217960;1292;96489;-93
2023/04/13 22:22:37;;;;;;;13.70;6.50;;;;;;;9.02;99.74;99780.92;217482;1291;138668;-92
2023/04/13 22:27:38;;;;;;;12.80;6.10;;;;;;;8.99;99.84;99775.95;218028;1291;138543;-94
2023/04/13 22:32:40;;;;;;;12.90;6.20;;;;;;;8.96;99.78;99773.99;217193;1293;138723;-95
2023/04/13 22:37:41;;;;;;;13.20;6.20;;;;;;;8.94;99.92;99770.60;217638;1292;138520;-94
2023/04/13 22:42:42;;;;;;;12.00;6.20;;;;;;;8.91;99.94;99766.65;217414;1294;138817;-94
2023/04/13 22:47:42;;;;;;;16.60;7.30;;;;;;;8.89;100.00;99768.67;217863;1293;96073;-94
2023/04/13 22:52:43;;;;;;;14.20;7.40;;;;;;;8.85;100.00;99769.05;217290;1293;138855;-94
2023/04/13 22:57:44;;;;;;;15.30;7.90;;;;;;;8.83;100.00;99774.66;217859;1293;138368;-95